Time;durP1;ratioP1;P1;durP2;ratioP2;P2;SDS_P1;SDS_P2;PMS_P1;PMS_P2;Temp;Humidity;BMP_temperature;BMP_pressure;BME280_temperature;BME280_humidity;BME280_pressure;Samples;Min_cycle;Max_cycle;Signal;HPM_P1;HPM_P2
2022/07/08 00:00:30;;;;;;;2.10;0.60;;;23.90;48.00;23.10;102461.00;;;;5016480;28;20423;-72
2022/07/08 00:03:18;;;;;;;1.90;0.90;;;23.90;47.90;23.10;102457.00;;;;5023790;28;20844;-71
2022/07/08 00:06:04;;;;;;;1.98;0.50;;;23.90;48.00;23.10;102458.00;;;;5026750;28;20391;-71
2022/07/08 00:08:51;;;;;;;2.20;0.50;;;23.90;47.90;23.10;102460.00;;;;5021833;28;20482;-71
2022/07/08 00:11:37;;;;;;;3.30;0.63;;;23.90;48.00;23.10;102455.00;;;;5033263;28;20451;-71
2022/07/08 00:14:23;;;;;;;1.42;0.47;;;23.90;48.00;23.00;102460.00;;;;5029972;28;20045;-71
2022/07/08 00:17:09;;;;;;;2.47;0.73;;;23.90;48.00;23.00;102458.00;;;;5031483;28;20041;-71
2022/07/08 00:19:55;;;;;;;2.22;0.47;;;23.90;48.00;23.10;102465.00;;;;5032118;28;20133;-72
2022/07/08 00:22:42;;;;;;;2.25;0.63;;;23.90;48.10;23.00;102464.00;;;;5024591;28;20545;-71
2022/07/08 00:25:28;;;;;;;2.28;0.70;;;23.90;48.20;23.00;102458.00;;;;5024922;28;20088;-71
2022/07/08 00:28:14;;;;;;;2.20;0.70;;;23.90;48.20;23.00;102471.00;;;;5035993;28;20371;-72
2022/07/08 00:31:00;;;;;;;1.58;0.55;;;23.90;48.10;23.00;102468.00;;;;5034012;28;20037;-71
2022/07/08 00:33:46;;;;;;;2.58;1.02;;;23.90;48.20;23.00;102461.00;;;;5023603;28;20045;-71
2022/07/08 00:36:32;;;;;;;2.30;0.55;;;23.90;48.20;23.00;102467.00;;;;5022594;28;20037;-71
2022/07/08 00:39:18;;;;;;;2.08;0.45;;;23.90;48.20;23.00;102461.00;;;;5024602;28;20052;-71
2022/07/08 00:42:05;;;;;;;3.70;0.75;;;23.90;48.20;23.00;102463.00;;;;5020564;28;20053;-72
2022/07/08 00:44:51;;;;;;;2.15;0.85;;;23.90;48.20;23.00;102466.00;;;;5012596;28;20466;-71
2022/07/08 00:47:37;;;;;;;1.40;0.45;;;23.90;48.20;23.00;102464.00;;;;5020206;28;20030;-71
2022/07/08 00:50:23;;;;;;;1.77;0.60;;;23.90;48.10;23.00;102468.00;;;;5023030;28;20128;-71
2022/07/08 00:53:09;;;;;;;2.85;0.60;;;23.90;48.10;23.00;102466.00;;;;5023385;28;20048;-71
2022/07/08 00:55:55;;;;;;;3.20;0.60;;;23.80;48.00;23.00;102469.00;;;;5027667;28;20641;-71
2022/07/08 00:58:41;;;;;;;2.08;0.52;;;23.90;48.10;23.00;102467.00;;;;5025512;28;20414;-72
2022/07/08 01:01:27;;;;;;;3.78;0.70;;;23.90;48.10;23.00;102472.00;;;;5024071;28;20083;-72
2022/07/08 01:04:14;;;;;;;2.22;0.75;;;23.80;48.10;23.00;102475.00;;;;5021801;28;20046;-72
2022/07/08 01:07:00;;;;;;;1.38;0.70;;;23.80;48.00;23.00;102472.00;;;;5024386;28;20037;-71
2022/07/08 01:09:46;;;;;;;1.83;0.50;;;23.80;48.10;23.00;102474.00;;;;5019690;28;20041;-71
2022/07/08 01:12:32;;;;;;;4.05;0.70;;;23.80;48.10;23.00;102474.00;;;;5020486;28;20061;-72
2022/07/08 01:15:20;;;;;;;1.85;0.70;;;23.80;48.00;23.00;102464.00;;;;5025854;28;20442;-72
2022/07/08 01:18:07;;;;;;;1.77;0.73;;;23.80;48.00;23.00;102477.00;;;;5021578;28;20045;-72
2022/07/08 01:20:53;;;;;;;2.17;0.60;;;23.80;48.00;23.00;102475.00;;;;5022610;28;20120;-71
2022/07/08 01:23:39;;;;;;;2.42;0.52;;;23.80;48.10;23.00;102470.00;;;;5019323;28;20049;-72
2022/07/08 01:26:25;;;;;;;1.05;0.50;;;23.80;48.10;23.00;102475.00;;;;5025840;28;20076;-71
2022/07/08 01:29:12;;;;;;;1.98;0.50;;;23.80;48.10;23.00;102472.00;;;;5025097;28;20483;-71
2022/07/08 01:32:01;;;;;;;2.35;0.75;;;23.80;48.10;23.00;102479.00;;;;5039080;28;20458;-72
2022/07/08 01:34:47;;;;;;;2.88;0.55;;;23.80;48.10;23.00;102476.00;;;;5024137;28;20132;-72
2022/07/08 01:37:33;;;;;;;3.03;0.60;;;23.80;48.00;23.00;102475.00;;;;5023434;28;20411;-72
2022/07/08 01:40:19;;;;;;;1.55;0.45;;;23.80;48.10;23.00;102469.00;;;;5022179;28;20080;-72
2022/07/08 01:43:06;;;;;;;2.08;0.65;;;23.80;48.10;23.00;102471.00;;;;5021614;28;20042;-72
2022/07/08 01:45:52;;;;;;;1.85;0.70;;;23.80;48.10;23.00;102462.00;;;;5025500;28;20080;-71
2022/07/08 01:48:38;;;;;;;2.90;0.75;;;23.80;48.10;23.00;102464.00;;;;5018715;28;20033;-72
2022/07/08 01:51:24;;;;;;;3.75;0.77;;;23.80;48.10;23.00;102466.00;;;;5020209;28;20033;-71
2022/07/08 01:54:10;;;;;;;1.67;0.60;;;23.80;48.10;23.00;102467.00;;;;5027416;28;20051;-71
2022/07/08 01:57:14;;;;;;;4.00;1.20;;;23.80;48.10;23.00;102468.00;;;;5022236;28;20045;-72
2022/07/08 02:00:00;;;;;;;2.53;0.63;;;23.80;48.20;23.00;102461.00;;;;5021658;28;20514;-71
2022/07/08 02:02:47;;;;;;;3.00;0.68;;;23.80;48.10;23.00;102464.00;;;;5020907;28;20041;-72
2022/07/08 02:05:34;;;;;;;2.88;0.73;;;23.80;48.10;23.00;102467.00;;;;5024287;28;20037;-72
2022/07/08 02:08:23;;;;;;;1.58;0.68;;;23.80;48.10;23.00;102458.00;;;;5019799;28;20073;-71
2022/07/08 02:14:15;;;;;;;2.22;0.40;;;23.80;48.00;23.00;102463.00;;;;5024739;28;20629;-71
2022/07/08 02:17:01;;;;;;;1.25;0.60;;;23.80;48.10;23.00;102466.00;;;;5022256;28;20100;-71
2022/07/08 02:19:48;;;;;;;3.10;0.65;;;23.80;48.10;23.00;102455.00;;;;5025525;28;20046;-71
2022/07/08 02:22:34;;;;;;;2.38;0.73;;;23.80;48.00;23.00;102465.00;;;;5023638;28;20068;-71
2022/07/08 02:25:20;;;;;;;2.90;0.60;;;23.80;48.00;23.00;102470.00;;;;5024910;28;20049;-71
2022/07/08 02:28:06;;;;;;;1.40;0.50;;;23.80;48.10;23.00;102466.00;;;;5024755;28;20045;-71
2022/07/08 02:30:52;;;;;;;1.80;0.60;;;23.80;48.00;23.00;102470.00;;;;5021529;28;20045;-71
2022/07/08 02:33:38;;;;;;;1.88;0.85;;;23.80;48.00;23.00;102472.00;;;;5021544;28;20037;-72
2022/07/08 02:36:24;;;;;;;3.15;0.68;;;23.80;48.10;23.00;102471.00;;;;5020621;28;20045;-71
2022/07/08 02:39:12;;;;;;;3.63;0.60;;;23.80;48.10;23.00;102471.00;;;;5023400;28;20048;-71
2022/07/08 02:41:58;;;;;;;2.08;0.35;;;23.80;48.10;22.90;102468.00;;;;5021593;28;20092;-72
2022/07/08 02:44:44;;;;;;;3.20;0.60;;;23.80;48.00;22.90;102479.00;;;;5018364;28;20391;-71
2022/07/08 02:47:30;;;;;;;3.92;0.82;;;23.80;48.00;22.90;102475.00;;;;5021782;28;20063;-71
2022/07/08 02:50:16;;;;;;;3.25;0.60;;;23.70;48.60;22.90;102468.00;;;;5020052;28;20036;-72
2022/07/08 02:53:02;;;;;;;2.42;0.90;;;23.80;48.00;22.90;102466.00;;;;5022054;28;20046;-72
2022/07/08 02:55:49;;;;;;;1.83;0.43;;;23.70;48.00;22.90;102471.00;;;;5024361;28;20049;-72
2022/07/08 02:58:35;;;;;;;1.77;0.60;;;23.70;48.00;22.90;102471.00;;;;5023871;28;20049;-72
2022/07/08 03:01:21;;;;;;;1.98;0.80;;;23.70;48.00;22.90;102467.00;;;;5024260;28;20040;-71
2022/07/08 03:04:07;;;;;;;3.33;0.80;;;23.70;47.90;22.90;102462.00;;;;5024840;28;20045;-72
2022/07/08 03:06:53;;;;;;;3.60;0.60;;;23.70;47.80;22.90;102468.00;;;;5022432;28;20042;-72
2022/07/08 03:09:39;;;;;;;2.42;0.60;;;23.70;47.70;22.90;102474.00;;;;5021641;28;20033;-72
2022/07/08 03:12:26;;;;;;;3.58;0.70;;;23.70;47.70;22.90;102472.00;;;;5022333;28;20040;-72
2022/07/08 03:15:12;;;;;;;1.80;0.75;;;23.70;47.80;22.90;102472.00;;;;5022691;28;20045;-72
2022/07/08 03:17:58;;;;;;;1.75;0.55;;;23.70;47.70;22.90;102471.00;;;;5023812;28;20042;-72
2022/07/08 03:20:44;;;;;;;2.78;0.70;;;23.70;47.70;22.90;102481.00;;;;5023099;28;20038;-72
2022/07/08 03:23:31;;;;;;;3.17;0.73;;;23.70;47.80;22.90;102483.00;;;;5021328;28;20045;-72
2022/07/08 03:26:17;;;;;;;1.90;0.60;;;23.70;48.00;22.90;102486.00;;;;5021250;28;20098;-72
2022/07/08 03:29:03;;;;;;;1.55;0.65;;;23.70;47.90;22.90;102492.00;;;;5020414;28;20045;-72
2022/07/08 03:31:49;;;;;;;3.22;0.60;;;23.70;47.90;22.90;102494.00;;;;5021960;28;20471;-71
2022/07/08 03:34:35;;;;;;;2.33;0.57;;;23.70;47.80;22.90;102497.00;;;;5022928;28;20041;-71
2022/07/08 03:37:21;;;;;;;2.53;0.60;;;23.70;47.80;22.90;102501.00;;;;5019372;28;20049;-72
2022/07/08 03:43:19;;;;;;;2.88;0.80;;;23.70;47.90;22.80;102506.00;;;;5024215;28;20045;-71
2022/07/08 03:46:05;;;;;;;1.05;0.40;;;23.70;47.90;22.80;102511.00;;;;5024277;28;20053;-71
2022/07/08 03:48:51;;;;;;;1.73;0.95;;;23.70;48.00;22.80;102521.00;;;;5027982;28;20045;-71
2022/07/08 03:51:37;;;;;;;2.08;0.77;;;23.70;47.90;22.80;102520.00;;;;5019191;28;20377;-71
2022/07/08 03:54:25;;;;;;;3.35;0.85;;;23.70;47.90;22.80;102521.00;;;;5027069;28;20045;-73
2022/07/08 03:57:11;;;;;;;2.28;0.60;;;23.70;48.00;22.80;102527.00;;;;5019535;28;20102;-71
2022/07/08 03:59:57;;;;;;;2.95;0.60;;;23.70;48.00;22.80;102528.00;;;;5023909;28;20053;-71
2022/07/08 04:02:44;;;;;;;3.53;0.65;;;23.60;47.80;22.80;102530.00;;;;5025369;28;20045;-71
2022/07/08 04:05:30;;;;;;;2.95;0.98;;;23.60;47.90;22.80;102526.00;;;;5021381;28;20122;-74
2022/07/08 04:08:16;;;;;;;1.55;0.98;;;23.60;47.90;22.80;102534.00;;;;5025976;28;20266;-71
2022/07/08 04:11:02;;;;;;;4.15;0.82;;;23.60;47.80;22.80;102538.00;;;;5019794;28;20077;-71
2022/07/08 04:13:48;;;;;;;2.55;0.70;;;23.60;47.90;22.80;102548.00;;;;5028385;28;20037;-71
2022/07/08 04:16:34;;;;;;;2.67;0.60;;;23.60;47.90;22.80;102533.00;;;;5030363;28;20241;-71
2022/07/08 04:19:20;;;;;;;1.63;0.80;;;23.70;47.90;22.80;102551.00;;;;5020273;28;20038;-75
2022/07/08 04:22:06;;;;;;;2.17;0.65;;;23.60;47.90;22.80;102554.00;;;;5031331;28;20038;-75
2022/07/08 04:24:52;;;;;;;4.22;0.50;;;23.60;47.90;22.80;102558.00;;;;5027527;28;20048;-76
2022/07/08 04:27:38;;;;;;;1.60;0.57;;;23.60;47.80;22.80;102557.00;;;;5025341;28;20042;-75
2022/07/08 04:30:25;;;;;;;4.82;0.80;;;23.60;47.70;22.80;102554.00;;;;5029481;28;20163;-75
2022/07/08 04:33:11;;;;;;;1.30;0.60;;;23.60;47.60;22.80;102554.00;;;;5025006;28;20042;-76
2022/07/08 04:35:57;;;;;;;1.67;0.68;;;23.60;47.70;22.80;102560.00;;;;5029038;28;20296;-75
2022/07/08 04:38:43;;;;;;;2.42;0.60;;;23.60;47.80;22.80;102562.00;;;;5022739;28;20041;-75
2022/07/08 04:41:29;;;;;;;2.45;0.65;;;23.60;48.50;22.80;102561.00;;;;5020315;28;20319;-75
2022/07/08 04:44:15;;;;;;;2.95;1.02;;;23.60;47.80;22.80;102571.00;;;;5033952;28;20096;-75
2022/07/08 04:47:01;;;;;;;2.97;0.60;;;23.60;47.90;22.80;102565.00;;;;5019505;28;20479;-76
2022/07/08 04:49:47;;;;;;;4.40;0.73;;;23.60;47.90;22.80;102572.00;;;;5026935;28;20089;-75
2022/07/08 04:52:33;;;;;;;2.67;0.90;;;23.60;47.90;22.80;102569.00;;;;5022807;28;20044;-78
2022/07/08 04:55:29;;;;;;;2.70;0.77;;;23.60;47.90;22.80;102570.00;;;;5021764;28;20049;-71
2022/07/08 04:58:15;;;;;;;1.55;0.63;;;23.60;47.90;22.70;102575.00;;;;5027433;28;20041;-71
2022/07/08 05:01:01;;;;;;;2.50;0.60;;;23.60;47.90;22.80;102579.00;;;;5025144;28;20510;-71
2022/07/08 05:03:47;;;;;;;1.85;0.50;;;23.60;47.90;22.70;102578.00;;;;5023844;28;20076;-71
2022/07/08 05:06:33;;;;;;;2.30;0.88;;;23.60;47.90;22.80;102582.00;;;;5028414;28;20308;-72
2022/07/08 05:09:19;;;;;;;2.33;0.95;;;23.60;48.00;22.80;102578.00;;;;5026387;28;20526;-71
2022/07/08 05:12:05;;;;;;;1.27;0.50;;;23.50;47.90;22.80;102577.00;;;;5036528;28;20053;-71
2022/07/08 05:14:52;;;;;;;1.83;0.63;;;23.50;47.90;22.80;102581.00;;;;5028428;28;20056;-71
2022/07/08 05:17:38;;;;;;;1.73;0.52;;;23.60;47.90;22.80;102582.00;;;;5026635;28;20359;-71
2022/07/08 05:20:25;;;;;;;2.90;0.73;;;23.50;47.90;22.80;102586.00;;;;5022804;28;20044;-70
2022/07/08 05:23:11;;;;;;;3.90;0.60;;;23.60;47.90;22.70;102588.00;;;;5023510;28;20079;-70
2022/07/08 05:25:57;;;;;;;3.00;0.73;;;23.60;48.00;22.70;102589.00;;;;5019883;28;20057;-70
2022/07/08 05:28:43;;;;;;;2.47;0.77;;;23.60;48.00;22.70;102592.00;;;;5022362;28;20045;-70
2022/07/08 05:31:29;;;;;;;1.80;0.80;;;23.60;48.00;22.70;102586.00;;;;5023894;28;20044;-71
2022/07/08 05:34:15;;;;;;;2.97;0.80;;;23.50;47.90;22.70;102592.00;;;;5024122;28;20045;-66
2022/07/08 05:37:01;;;;;;;3.65;1.20;;;23.60;48.00;22.70;102594.00;;;;5023528;28;20487;-66
2022/07/08 05:39:47;;;;;;;3.53;0.90;;;23.60;47.90;22.70;102589.00;;;;5023537;28;20045;-66
2022/07/08 05:42:33;;;;;;;2.60;0.70;;;23.60;48.00;22.70;102595.00;;;;5018279;28;20407;-66
2022/07/08 05:45:19;;;;;;;2.08;0.55;;;23.50;47.90;22.70;102587.00;;;;5022419;28;20041;-67
2022/07/08 05:48:05;;;;;;;2.03;0.80;;;23.60;48.00;22.70;102592.00;;;;5019788;28;20045;-67
2022/07/08 05:50:51;;;;;;;2.20;0.80;;;23.50;48.00;22.70;102597.00;;;;5021616;28;20029;-66
2022/07/08 05:53:37;;;;;;;2.47;0.60;;;23.60;48.00;22.70;102606.00;;;;5020507;28;20041;-66
2022/07/08 05:56:24;;;;;;;2.00;0.90;;;23.60;48.00;22.70;102613.00;;;;5021944;28;20041;-66
2022/07/08 05:59:10;;;;;;;3.17;0.73;;;23.60;48.00;22.70;102613.00;;;;5017714;28;20044;-66
2022/07/08 06:01:56;;;;;;;3.63;0.70;;;23.60;48.10;22.70;102609.00;;;;5021700;28;20577;-66
2022/07/08 06:04:42;;;;;;;2.03;0.50;;;23.60;48.00;22.70;102611.00;;;;5020485;28;20065;-67
2022/07/08 06:07:28;;;;;;;1.77;0.60;;;23.60;48.10;22.70;102609.00;;;;5020972;28;20550;-66
2022/07/08 06:10:14;;;;;;;1.38;0.60;;;23.60;47.90;22.80;102604.00;;;;5020370;28;20581;-66
2022/07/08 06:13:00;;;;;;;1.25;0.55;;;23.60;47.90;22.70;102599.00;;;;5023085;28;20049;-66
2022/07/08 06:15:47;;;;;;;2.45;0.73;;;23.60;48.00;22.70;102603.00;;;;5025386;28;20071;-66
2022/07/08 06:18:34;;;;;;;1.70;0.70;;;23.60;48.00;22.70;102611.00;;;;5018473;28;20045;-66
2022/07/08 06:21:20;;;;;;;2.67;0.45;;;23.60;47.90;22.70;102614.00;;;;5021810;28;20392;-66
2022/07/08 06:24:07;;;;;;;2.33;0.88;;;23.60;48.00;22.70;102609.00;;;;5025763;28;20041;-66
2022/07/08 06:26:53;;;;;;;2.40;0.77;;;23.60;48.00;22.70;102620.00;;;;5019527;28;20042;-66
2022/07/08 06:29:39;;;;;;;1.85;0.70;;;23.60;48.00;22.70;102619.00;;;;5027005;28;20116;-66
2022/07/08 06:32:25;;;;;;;1.95;0.60;;;23.60;48.00;22.70;102607.00;;;;5019527;28;20238;-66
2022/07/08 06:35:11;;;;;;;2.53;0.60;;;23.60;48.00;22.80;102615.00;;;;5018208;28;20049;-66
2022/07/08 06:37:57;;;;;;;2.63;0.68;;;23.60;48.00;22.80;102613.00;;;;5021737;28;20045;-66
2022/07/08 06:40:43;;;;;;;3.53;0.80;;;23.60;48.10;22.70;102605.00;;;;5019353;28;20122;-67
2022/07/08 06:43:29;;;;;;;2.42;0.60;;;23.60;47.80;22.70;102611.00;;;;5025194;28;20549;-66
2022/07/08 06:46:15;;;;;;;1.08;0.63;;;23.60;47.90;22.70;102610.00;;;;5019712;28;20123;-67
2022/07/08 06:49:01;;;;;;;3.53;1.10;;;23.60;47.80;22.70;102608.00;;;;5020567;28;20037;-66
2022/07/08 06:51:48;;;;;;;4.70;1.15;;;23.60;47.90;22.70;102608.00;;;;5018816;28;20068;-69
2022/07/08 06:54:37;;;;;;;2.92;0.80;;;23.60;47.60;22.70;102615.00;;;;5021112;28;20048;-66
2022/07/08 06:57:23;;;;;;;2.05;0.60;;;23.60;47.90;22.70;102617.00;;;;5021771;28;20064;-66
2022/07/08 07:00:09;;;;;;;4.82;0.70;;;23.60;47.90;22.70;102619.00;;;;5025160;28;20399;-67
2022/07/08 07:02:55;;;;;;;4.70;0.70;;;23.60;47.80;22.70;102613.00;;;;5026215;28;20466;-67
2022/07/08 07:05:41;;;;;;;4.25;0.80;;;23.60;47.80;22.70;102621.00;;;;5019433;28;20048;-66
2022/07/08 07:08:27;;;;;;;5.75;1.05;;;23.60;47.90;22.70;102625.00;;;;5022939;28;20060;-66
2022/07/08 07:11:14;;;;;;;3.28;0.73;;;23.60;47.90;22.70;102629.00;;;;5022886;28;20053;-66
2022/07/08 07:14:01;;;;;;;4.90;0.80;;;23.60;47.90;22.70;102626.00;;;;5022799;28;20045;-66
2022/07/08 07:16:47;;;;;;;3.72;0.80;;;23.60;47.90;22.70;102628.00;;;;5020916;28;20069;-66
2022/07/08 07:19:33;;;;;;;4.38;0.93;;;23.60;48.00;22.70;102635.00;;;;5022055;28;20411;-66
2022/07/08 07:22:19;;;;;;;5.28;0.80;;;23.60;47.90;22.70;102632.00;;;;5029088;28;20692;-66
2022/07/08 07:25:06;;;;;;;3.72;0.70;;;23.60;47.90;22.70;102646.00;;;;5028287;28;20057;-66
2022/07/08 07:27:52;;;;;;;4.93;0.67;;;23.60;47.90;22.70;102635.00;;;;5021069;28;20590;-67
2022/07/08 07:30:38;;;;;;;6.88;0.63;;;23.60;47.90;22.70;102641.00;;;;5027032;28;20283;-66
2022/07/08 07:33:24;;;;;;;4.60;0.82;;;23.60;47.90;22.80;102635.00;;;;5022416;28;20573;-66
2022/07/08 07:36:10;;;;;;;3.35;0.63;;;23.70;47.90;22.80;102644.00;;;;5023971;28;20041;-66
2022/07/08 07:38:57;;;;;;;2.33;0.60;;;23.60;47.90;22.80;102639.00;;;;5026743;28;20123;-66
2022/07/08 07:41:43;;;;;;;3.28;0.68;;;23.60;47.90;22.80;102643.00;;;;5025182;28;20478;-66
2022/07/08 07:44:29;;;;;;;4.28;0.90;;;23.60;47.90;22.80;102644.00;;;;5030607;28;20041;-66
2022/07/08 07:47:15;;;;;;;1.65;0.52;;;23.60;47.90;22.80;102643.00;;;;5025195;28;20448;-66
2022/07/08 07:50:01;;;;;;;2.10;0.68;;;23.60;47.90;22.80;102645.00;;;;5026297;28;20037;-66
2022/07/08 07:52:47;;;;;;;3.88;1.00;;;23.70;47.90;22.80;102651.00;;;;5025032;28;20038;-66
2022/07/08 07:55:33;;;;;;;3.75;0.52;;;23.60;47.90;22.80;102642.00;;;;5040436;28;20620;-66
2022/07/08 07:58:19;;;;;;;3.33;0.80;;;23.70;47.90;22.80;102647.00;;;;5024364;28;20041;-66
2022/07/08 08:01:05;;;;;;;3.17;1.00;;;23.70;47.90;22.80;102644.00;;;;5031014;28;20399;-66
2022/07/08 08:03:52;;;;;;;3.15;0.80;;;23.70;47.90;22.80;102643.00;;;;5030113;28;20734;-65
2022/07/08 08:06:38;;;;;;;2.13;0.70;;;23.70;47.90;22.80;102645.00;;;;5027880;28;20610;-65
2022/07/08 08:09:24;;;;;;;5.25;0.95;;;23.70;47.90;22.80;102647.00;;;;5035146;28;20037;-65
2022/07/08 08:12:10;;;;;;;1.10;0.52;;;23.70;47.90;22.80;102654.00;;;;5053014;28;20042;-65
2022/07/08 08:14:56;;;;;;;1.88;0.70;;;23.70;47.80;22.80;102651.00;;;;5027954;28;20735;-65
2022/07/08 08:17:42;;;;;;;2.10;0.50;;;23.70;47.80;22.80;102655.00;;;;5024130;28;20056;-65
2022/07/08 08:20:31;;;;;;;2.00;0.65;;;23.70;47.80;22.80;102650.00;;;;5031488;28;20091;-65
2022/07/08 08:23:18;;;;;;;2.05;0.70;;;23.70;47.60;22.80;102648.00;;;;5026035;28;20044;-66
2022/07/08 08:26:04;;;;;;;3.63;0.80;;;23.70;47.70;22.80;102649.00;;;;5023634;28;20053;-65
2022/07/08 08:28:50;;;;;;;2.42;0.98;;;23.70;47.70;22.80;102646.00;;;;5021847;28;20510;-65
2022/07/08 08:31:36;;;;;;;4.38;0.70;;;23.70;47.80;22.80;102638.00;;;;5021411;28;20115;-66
2022/07/08 08:34:22;;;;;;;4.03;0.60;;;23.70;47.70;22.80;102646.00;;;;5024843;28;20044;-65
2022/07/08 08:37:08;;;;;;;1.17;0.60;;;23.70;47.70;22.80;102644.00;;;;5025954;28;20394;-65
2022/07/08 08:39:55;;;;;;;4.20;1.15;;;23.70;47.70;22.80;102653.00;;;;5021894;28;20041;-65
2022/07/08 08:42:41;;;;;;;1.85;0.50;;;23.70;47.70;22.80;102642.00;;;;5025723;28;20124;-64
2022/07/08 08:45:27;;;;;;;1.83;0.50;;;23.70;47.70;22.80;102654.00;;;;5024686;28;20159;-65
2022/07/08 08:48:13;;;;;;;3.30;0.80;;;23.70;47.70;22.80;102663.00;;;;5022614;28;20044;-63
2022/07/08 08:51:02;;;;;;;2.22;0.60;;;23.70;47.70;22.80;102660.00;;;;5030606;28;20038;-64
2022/07/08 08:53:52;;;;;;;2.40;0.63;;;23.70;47.70;22.80;102657.00;;;;5010715;28;20049;-64
2022/07/08 08:56:38;;;;;;;3.63;0.80;;;23.70;47.70;22.80;102660.00;;;;5020770;28;20124;-63
2022/07/08 08:59:24;;;;;;;1.67;0.65;;;23.70;47.50;22.80;102653.00;;;;5026675;28;20041;-63
2022/07/08 09:02:11;;;;;;;2.08;0.60;;;23.70;47.60;22.80;102652.00;;;;5028755;28;20037;-64
2022/07/08 09:04:57;;;;;;;2.45;0.60;;;23.70;47.70;22.80;102657.00;;;;5024678;28;20037;-64
2022/07/08 09:07:44;;;;;;;3.10;0.88;;;23.70;47.60;22.80;102661.00;;;;5019663;28;20037;-63
2022/07/08 09:10:30;;;;;;;3.65;0.40;;;23.80;47.70;22.80;102657.00;;;;5027165;28;20041;-64
2022/07/08 09:13:16;;;;;;;2.22;0.77;;;23.80;47.70;22.80;102653.00;;;;5035044;28;20146;-64
2022/07/08 09:16:02;;;;;;;2.25;0.40;;;23.80;47.70;22.80;102661.00;;;;5031304;28;20111;-64
2022/07/08 09:18:51;;;;;;;3.80;0.60;;;23.70;47.70;22.80;102657.00;;;;5023546;28;20050;-64
2022/07/08 09:21:37;;;;;;;2.20;0.57;;;23.80;47.80;22.80;102658.00;;;;5030452;28;20388;-64
2022/07/08 09:24:23;;;;;;;1.13;0.47;;;23.70;47.60;22.80;102660.00;;;;5030344;28;20170;-66
2022/07/08 09:27:10;;;;;;;2.17;0.70;;;23.80;47.70;22.80;102657.00;;;;5022346;28;20038;-65
2022/07/08 09:30:00;;;;;;;3.10;0.70;;;23.80;48.50;22.80;102653.00;;;;5026990;28;20235;-75
2022/07/08 09:33:00;;;;;;;3.95;0.60;;;23.80;47.70;22.80;102656.00;;;;5024663;28;20045;-66
2022/07/08 09:35:50;;;;;;;1.75;0.47;;;23.80;47.80;22.80;102656.00;;;;5024603;28;20052;-67
2022/07/08 09:38:37;;;;;;;2.97;0.80;;;23.80;47.70;22.80;102656.00;;;;5027989;28;20049;-66
2022/07/08 09:41:23;;;;;;;1.80;0.40;;;23.80;47.70;22.80;102648.00;;;;5026124;28;20051;-66
2022/07/08 09:44:10;;;;;;;2.17;0.68;;;23.80;47.70;22.80;102656.00;;;;4998670;28;20099;-66
2022/07/08 09:46:56;;;;;;;1.88;0.57;;;23.80;47.70;22.80;102657.00;;;;5015135;28;20562;-66
2022/07/08 09:49:45;;;;;;;3.60;0.65;;;23.80;47.70;22.80;102664.00;;;;5037795;28;20037;-66
2022/07/08 09:52:31;;;;;;;2.08;0.68;;;23.80;47.70;22.80;102673.00;;;;5023232;28;20052;-66
2022/07/08 09:55:17;;;;;;;2.50;0.50;;;23.80;47.80;22.80;102677.00;;;;5022075;28;20068;-66
2022/07/08 09:58:03;;;;;;;2.72;0.82;;;23.80;47.80;22.80;102677.00;;;;4995815;28;20050;-66
2022/07/08 10:00:51;;;;;;;2.60;0.57;;;23.80;47.90;22.80;102666.00;;;;5021284;28;20115;-66
2022/07/08 10:03:37;;;;;;;1.58;0.47;;;23.80;47.80;22.80;102670.00;;;;5022687;28;20038;-66
2022/07/08 10:06:23;;;;;;;1.88;0.40;;;23.80;47.80;22.80;102670.00;;;;5025269;28;20437;-66
2022/07/08 10:09:09;;;;;;;2.05;0.50;;;23.80;47.90;22.80;102661.00;;;;5026160;28;20045;-66
2022/07/08 10:11:55;;;;;;;4.22;0.77;;;23.80;47.90;22.80;102664.00;;;;5023990;28;20041;-66
2022/07/08 10:14:45;;;;;;;3.15;0.50;;;23.80;47.90;22.80;102668.00;;;;5026623;28;20552;-66
2022/07/08 10:17:35;;;;;;;2.65;0.60;;;23.80;47.90;22.80;102660.00;;;;5022765;28;20516;-66
2022/07/08 10:20:23;;;;;;;2.60;0.90;;;23.80;47.90;22.80;102670.00;;;;5018457;28;20045;-66
2022/07/08 10:23:14;;;;;;;1.85;0.60;;;23.80;47.90;22.80;102663.00;;;;5022289;28;20068;-66
2022/07/08 10:26:00;;;;;;;2.25;0.60;;;23.80;47.90;22.90;102662.00;;;;5010198;28;20060;-66
2022/07/08 10:29:19;;;;;;;1.25;0.60;;;23.80;47.90;22.80;102665.00;;;;4995477;28;20038;-68
2022/07/08 10:32:26;;;;;;;;;;;23.80;48.00;22.80;102666.00;;;;5037124;28;20707;-66
2022/07/08 10:35:14;;;;;;;2.40;0.80;;;23.80;48.00;22.80;102660.00;;;;5021950;28;19913;-66
2022/07/08 10:38:00;;;;;;;2.08;1.00;;;23.80;47.80;22.80;102662.00;;;;5022171;28;20045;-66
2022/07/08 10:40:49;;;;;;;1.98;0.55;;;23.80;47.90;22.80;102664.00;;;;5023077;28;20037;-66
2022/07/08 10:43:36;;;;;;;1.65;0.45;;;23.80;47.90;22.80;102652.00;;;;5021090;28;20041;-66
2022/07/08 10:46:24;;;;;;;2.03;0.60;;;23.80;48.00;22.80;102660.00;;;;5019365;28;20633;-66
2022/07/08 10:49:12;;;;;;;2.00;0.40;;;23.80;48.00;22.80;102667.00;;;;5022828;28;20097;-67
2022/07/08 10:52:01;;;;;;;;;;;23.80;48.00;22.80;102658.00;;;;5023555;28;20095;-66
2022/07/08 10:54:47;;;;;;;3.65;0.60;;;23.80;48.00;22.80;102646.00;;;;5020470;28;19917;-66
2022/07/08 10:57:35;;;;;;;1.55;0.65;;;23.90;48.00;22.80;102653.00;;;;5024198;28;20095;-67
2022/07/08 11:00:22;;;;;;;0.70;0.40;;;23.90;48.00;22.80;102652.00;;;;5022227;28;20065;-66
2022/07/08 11:03:09;;;;;;;2.00;0.52;;;23.80;48.00;22.80;102649.00;;;;5027829;28;20046;-66
2022/07/08 11:05:56;;;;;;;1.65;0.60;;;23.80;48.00;22.80;102667.00;;;;5021765;28;20480;-66
2022/07/08 11:09:00;;;;;;;3.38;0.55;;;23.80;48.00;22.80;102662.00;;;;5024486;28;20042;-66
2022/07/08 11:11:46;;;;;;;1.65;0.50;;;23.80;48.00;22.90;102658.00;;;;5019152;28;20045;-66
2022/07/08 11:14:33;;;;;;;2.78;0.55;;;23.90;48.10;22.90;102658.00;;;;5023791;28;20038;-66
2022/07/08 11:17:20;;;;;;;1.98;0.50;;;23.80;48.10;22.90;102652.00;;;;5020832;28;20060;-66
2022/07/08 11:20:26;;;;;;;1.80;0.57;;;23.90;48.10;22.90;102652.00;;;;5024566;28;20510;-66
2022/07/08 11:23:13;;;;;;;1.77;0.88;;;23.90;48.10;22.90;102653.00;;;;5021209;28;20090;-65
2022/07/08 11:25:59;;;;;;;0.50;0.30;;;23.90;48.10;22.90;102652.00;;;;5026701;28;20417;-66
2022/07/08 11:28:45;;;;;;;2.58;0.70;;;23.90;48.10;22.90;102647.00;;;;5032312;28;20143;-66
2022/07/08 11:31:33;;;;;;;4.40;0.50;;;23.90;48.10;22.90;102652.00;;;;5018022;28;20475;-66
2022/07/08 11:34:19;;;;;;;1.60;0.60;;;23.90;48.10;22.90;102644.00;;;;5019029;28;20094;-65
2022/07/08 11:37:05;;;;;;;1.53;0.50;;;23.90;48.10;22.90;102632.00;;;;5019703;28;20115;-66
2022/07/08 11:39:51;;;;;;;0.55;0.43;;;23.90;48.10;22.90;102632.00;;;;5024261;28;20048;-66
2022/07/08 11:42:38;;;;;;;2.80;0.60;;;23.80;48.00;22.90;102624.00;;;;5019867;28;20135;-66
2022/07/08 11:45:25;;;;;;;1.15;0.50;;;23.90;48.10;22.90;102622.00;;;;5021080;28;20064;-66
2022/07/08 11:48:11;;;;;;;0.95;0.40;;;23.90;48.00;22.90;102625.00;;;;5026373;28;20033;-65
2022/07/08 11:50:58;;;;;;;1.80;0.57;;;23.80;48.00;22.90;102626.00;;;;5026629;28;20132;-66
2022/07/08 11:53:44;;;;;;;1.88;0.50;;;23.90;48.10;22.90;102613.00;;;;5021622;28;20029;-66
2022/07/08 11:56:33;;;;;;;0.77;0.50;;;23.90;48.10;22.90;102620.00;;;;5016445;28;20038;-65
2022/07/08 11:59:27;;;;;;;1.75;0.60;;;23.90;48.20;22.90;102618.00;;;;5018216;28;20044;-65
2022/07/08 12:02:18;;;;;;;1.48;0.47;;;23.90;48.10;22.90;102610.00;;;;5016492;28;20050;-65
2022/07/08 12:05:10;;;;;;;1.25;0.50;;;24.00;48.10;22.90;102609.00;;;;5021449;28;20048;-65
2022/07/08 12:07:56;;;;;;;2.30;0.43;;;24.00;48.10;22.90;102614.00;;;;5039049;28;20482;-65
2022/07/08 12:10:42;;;;;;;1.52;0.40;;;24.00;48.10;22.90;102606.00;;;;5026636;28;20384;-65
2022/07/08 12:13:45;;;;;;;2.05;0.50;;;24.00;48.20;22.90;102605.00;;;;5017996;28;20030;-65
2022/07/08 12:16:55;;;;;;;3.17;0.52;;;24.00;48.20;22.90;102605.00;;;;5020893;28;20038;-66
2022/07/08 12:19:41;;;;;;;4.00;1.13;;;24.00;48.20;22.90;102604.00;;;;5015891;28;20144;-65